SWR49L LOWW-LSZH
Flight info
| Callsign | SWR49L |
|---|---|
| Flight time | 1h 4m |
| Altitude | 30000 |
| Route | SOVIL2B/16 SOVIL DCT SITNI DCT BAGSI DCT MATIG DCT TRAUN DCT KONIN L856 NEGRA |
| Aircraft | A21N/M-SDE2E3FGHIRWXY/LB1 |
Departure
| Time | 2026-05-05 17:51 |
|---|---|
| Airport | Vienna International Airport (LOWW) |
Arrival
| Time | 2026-05-05 18:56 |
|---|---|
| Airport | Zürich Airport (LSZH) |
| Time | Latitude | Longitude | Altitude | Speed | Heading |
|---|---|---|---|---|---|
| 2026-05-05 17:02 | 48.11725 | 16.56735 | 615 ft | 0 kts | 25° |
| 2026-05-05 17:37 | 48.11708 | 16.56722 | 615 ft | 4 kts | 28° |
| 2026-05-05 17:37 | 48.11685 | 16.56702 | 630 ft | 4 kts | 37° |
| 2026-05-05 17:37 | 48.11667 | 16.56674 | 633 ft | 4 kts | 69° |
| 2026-05-05 17:38 | 48.11666 | 16.56651 | 632 ft | 0 kts | 116° |
| 2026-05-05 17:42 | 48.11666 | 16.56652 | 615 ft | 1 kts | 116° |
| 2026-05-05 17:43 | 48.11660 | 16.56669 | 627 ft | 3 kts | 116° |
| 2026-05-05 17:43 | 48.11650 | 16.56701 | 631 ft | 4 kts | 116° |
| 2026-05-05 17:43 | 48.11634 | 16.56748 | 615 ft | 6 kts | 116° |
| 2026-05-05 17:43 | 48.11630 | 16.56760 | 615 ft | 0 kts | 116° |
| 2026-05-05 17:45 | 48.11630 | 16.56762 | 615 ft | 1 kts | 116° |
| 2026-05-05 17:45 | 48.11623 | 16.56782 | 627 ft | 3 kts | 116° |
| 2026-05-05 17:45 | 48.11611 | 16.56821 | 620 ft | 5 kts | 116° |
| 2026-05-05 17:45 | 48.11593 | 16.56877 | 618 ft | 7 kts | 116° |
| 2026-05-05 17:46 | 48.11570 | 16.56947 | 619 ft | 8 kts | 116° |
| 2026-05-05 17:46 | 48.11540 | 16.57038 | 627 ft | 11 kts | 116° |
| 2026-05-05 17:46 | 48.11504 | 16.57150 | 618 ft | 13 kts | 116° |
| 2026-05-05 17:46 | 48.11461 | 16.57281 | 620 ft | 15 kts | 116° |
| 2026-05-05 17:47 | 48.11434 | 16.57392 | 620 ft | 10 kts | 77° |
| 2026-05-05 17:47 | 48.11513 | 16.57461 | 615 ft | 14 kts | 356° |
| 2026-05-05 17:47 | 48.11610 | 16.57429 | 623 ft | 15 kts | 345° |
| 2026-05-05 17:47 | 48.11714 | 16.57386 | 622 ft | 16 kts | 344° |
| 2026-05-05 17:48 | 48.11827 | 16.57338 | 621 ft | 17 kts | 343° |
| 2026-05-05 17:48 | 48.11948 | 16.57288 | 623 ft | 17 kts | 358° |
| 2026-05-05 17:48 | 48.11997 | 16.57360 | 615 ft | 13 kts | 72° |
| 2026-05-05 17:48 | 48.12013 | 16.57493 | 615 ft | 13 kts | 99° |
| 2026-05-05 17:49 | 48.11990 | 16.57636 | 621 ft | 15 kts | 104° |
| 2026-05-05 17:49 | 48.11962 | 16.57790 | 616 ft | 14 kts | 116° |
| 2026-05-05 17:49 | 48.11904 | 16.57850 | 620 ft | 0 kts | 165° |
| 2026-05-05 17:50 | 48.11870 | 16.57864 | 615 ft | 26 kts | 165° |
| 2026-05-05 17:51 | 48.11456 | 16.58037 | 626 ft | 94 kts | 164° |
| 2026-05-05 17:51 | 48.10647 | 16.58380 | 618 ft | 144 kts | 164° |
| 2026-05-05 17:51 | 48.09615 | 16.58836 | 910 ft | 159 kts | 164° |
| 2026-05-05 17:51 | 48.08530 | 16.59351 | 1350 ft | 170 kts | 164° |
| 2026-05-05 17:52 | 48.07341 | 16.59917 | 1801 ft | 189 kts | 165° |
| 2026-05-05 17:52 | 48.06006 | 16.60516 | 2160 ft | 212 kts | 172° |
| 2026-05-05 17:52 | 48.04524 | 16.60329 | 2711 ft | 221 kts | 205° |
| 2026-05-05 17:52 | 48.03410 | 16.58814 | 3540 ft | 226 kts | 233° |
| 2026-05-05 17:53 | 48.02631 | 16.56705 | 4342 ft | 232 kts | 239° |
| 2026-05-05 17:53 | 48.01857 | 16.54566 | 5135 ft | 236 kts | 238° |
| 2026-05-05 17:53 | 48.01028 | 16.52413 | 5873 ft | 242 kts | 237° |
| 2026-05-05 17:53 | 48.00158 | 16.50238 | 6621 ft | 245 kts | 236° |
| 2026-05-05 17:54 | 47.99268 | 16.48060 | 7386 ft | 247 kts | 236° |
| 2026-05-05 17:54 | 47.98381 | 16.45845 | 8128 ft | 250 kts | 239° |
| 2026-05-05 17:54 | 47.97839 | 16.43351 | 8847 ft | 259 kts | 261° |
| 2026-05-05 17:54 | 47.97849 | 16.40666 | 9569 ft | 266 kts | 271° |
| 2026-05-05 17:55 | 47.97990 | 16.37860 | 10256 ft | 268 kts | 269° |
| 2026-05-05 17:55 | 47.98123 | 16.35102 | 10906 ft | 272 kts | 271° |
| 2026-05-05 17:55 | 47.98253 | 16.32226 | 11572 ft | 276 kts | 271° |
| 2026-05-05 17:55 | 47.98377 | 16.29343 | 12209 ft | 280 kts | 271° |
| 2026-05-05 17:56 | 47.98496 | 16.26430 | 12909 ft | 282 kts | 271° |
| 2026-05-05 17:56 | 47.98611 | 16.23535 | 13599 ft | 284 kts | 270° |
| 2026-05-05 17:56 | 47.98728 | 16.20539 | 14218 ft | 286 kts | 269° |
| 2026-05-05 17:56 | 47.98841 | 16.17608 | 14826 ft | 288 kts | 269° |
| 2026-05-05 17:57 | 47.98952 | 16.14604 | 15416 ft | 292 kts | 270° |
| 2026-05-05 17:57 | 47.99105 | 16.11567 | 15980 ft | 296 kts | 272° |
| 2026-05-05 17:57 | 47.99333 | 16.08501 | 16576 ft | 299 kts | 272° |
| 2026-05-05 17:57 | 47.99572 | 16.05395 | 17059 ft | 305 kts | 274° |
| 2026-05-05 17:58 | 47.99820 | 16.02175 | 17331 ft | 320 kts | 272° |
| 2026-05-05 17:58 | 48.00077 | 15.98798 | 17557 ft | 335 kts | 272° |
| 2026-05-05 17:58 | 48.00345 | 15.95261 | 17769 ft | 350 kts | 274° |
| 2026-05-05 17:58 | 48.00622 | 15.91605 | 18153 ft | 358 kts | 273° |
| 2026-05-05 17:59 | 48.00906 | 15.87891 | 18682 ft | 361 kts | 273° |
| 2026-05-05 17:59 | 48.01190 | 15.84153 | 19214 ft | 364 kts | 273° |
| 2026-05-05 17:59 | 48.01477 | 15.80388 | 19749 ft | 366 kts | 274° |
| 2026-05-05 17:59 | 48.01762 | 15.76593 | 20274 ft | 369 kts | 274° |
| 2026-05-05 18:00 | 48.02047 | 15.72768 | 20818 ft | 371 kts | 273° |
| 2026-05-05 18:00 | 48.02329 | 15.68926 | 21359 ft | 373 kts | 274° |
| 2026-05-05 18:00 | 48.02609 | 15.65065 | 21874 ft | 376 kts | 273° |
| 2026-05-05 18:00 | 48.02894 | 15.61166 | 22369 ft | 378 kts | 274° |
| 2026-05-05 18:01 | 48.03180 | 15.57246 | 22866 ft | 381 kts | 274° |
| 2026-05-05 18:01 | 48.03468 | 15.53295 | 23344 ft | 384 kts | 274° |
| 2026-05-05 18:01 | 48.03754 | 15.49324 | 23746 ft | 386 kts | 273° |
| 2026-05-05 18:01 | 48.04044 | 15.45321 | 24138 ft | 389 kts | 274° |
| 2026-05-05 18:02 | 48.04334 | 15.41283 | 24491 ft | 393 kts | 274° |
| 2026-05-05 18:02 | 48.04599 | 15.37216 | 24898 ft | 393 kts | 270° |
| 2026-05-05 18:02 | 48.04698 | 15.33128 | 25333 ft | 393 kts | 268° |
| 2026-05-05 18:02 | 48.04761 | 15.29033 | 25751 ft | 395 kts | 269° |
| 2026-05-05 18:03 | 48.04822 | 15.24921 | 26138 ft | 397 kts | 268° |
| 2026-05-05 18:03 | 48.04882 | 15.20790 | 26503 ft | 399 kts | 268° |
| 2026-05-05 18:03 | 48.04941 | 15.16641 | 26886 ft | 400 kts | 268° |
| 2026-05-05 18:03 | 48.05002 | 15.12472 | 27211 ft | 403 kts | 268° |
| 2026-05-05 18:04 | 48.05064 | 15.08277 | 27523 ft | 406 kts | 269° |
| 2026-05-05 18:04 | 48.05124 | 15.04046 | 27858 ft | 408 kts | 268° |
| 2026-05-05 18:04 | 48.05184 | 14.99793 | 28147 ft | 411 kts | 268° |
| 2026-05-05 18:04 | 48.05241 | 14.95502 | 28441 ft | 414 kts | 268° |
| 2026-05-05 18:05 | 48.05292 | 14.91183 | 28758 ft | 416 kts | 268° |
| 2026-05-05 18:05 | 48.05344 | 14.86848 | 29075 ft | 418 kts | 268° |
| 2026-05-05 18:05 | 48.05401 | 14.82493 | 29391 ft | 420 kts | 268° |
| 2026-05-05 18:05 | 48.05440 | 14.78128 | 29696 ft | 422 kts | 268° |
| 2026-05-05 18:06 | 48.05470 | 14.73712 | 29753 ft | 429 kts | 268° |
| 2026-05-05 18:06 | 48.05527 | 14.64605 | 29731 ft | 447 kts | 268° |
| 2026-05-05 18:07 | 48.05588 | 14.55158 | 29722 ft | 460 kts | 268° |
| 2026-05-05 18:07 | 48.05652 | 14.45643 | 29713 ft | 461 kts | 268° |
| 2026-05-05 18:08 | 48.05708 | 14.35992 | 29719 ft | 461 kts | 268° |
| 2026-05-05 18:08 | 48.05758 | 14.26482 | 29721 ft | 461 kts | 268° |
| 2026-05-05 18:09 | 48.05794 | 14.16906 | 29745 ft | 461 kts | 267° |
| 2026-05-05 18:09 | 48.05818 | 14.07371 | 29728 ft | 458 kts | 267° |
| 2026-05-05 18:10 | 48.05829 | 13.97849 | 29721 ft | 458 kts | 267° |
| 2026-05-05 18:10 | 48.05839 | 13.89870 | 29738 ft | 458 kts | 267° |
| 2026-05-05 18:11 | 48.05842 | 13.80356 | 29735 ft | 458 kts | 267° |
| 2026-05-05 18:11 | 48.05841 | 13.70830 | 29761 ft | 457 kts | 266° |
| 2026-05-05 18:12 | 48.05845 | 13.61357 | 29748 ft | 456 kts | 266° |
| 2026-05-05 18:12 | 48.05658 | 13.51902 | 29752 ft | 453 kts | 260° |
| 2026-05-05 18:13 | 48.04863 | 13.42626 | 29752 ft | 453 kts | 259° |
| 2026-05-05 18:13 | 48.04056 | 13.33296 | 29768 ft | 453 kts | 259° |
| 2026-05-05 18:14 | 48.03257 | 13.23963 | 29783 ft | 452 kts | 259° |
| 2026-05-05 18:14 | 48.02463 | 13.14637 | 29777 ft | 452 kts | 259° |
| 2026-05-05 18:15 | 48.01655 | 13.05261 | 29778 ft | 452 kts | 259° |
| 2026-05-05 18:15 | 48.00829 | 12.95954 | 29788 ft | 452 kts | 259° |
| 2026-05-05 18:16 | 47.99993 | 12.86654 | 29797 ft | 452 kts | 259° |
| 2026-05-05 18:16 | 47.99167 | 12.77414 | 29808 ft | 452 kts | 259° |
| 2026-05-05 18:17 | 47.98316 | 12.68055 | 29810 ft | 452 kts | 259° |
| 2026-05-05 18:17 | 47.97473 | 12.58839 | 29797 ft | 452 kts | 259° |
| 2026-05-05 18:18 | 47.96610 | 12.49502 | 29820 ft | 449 kts | 259° |
| 2026-05-05 18:18 | 47.95758 | 12.40370 | 29841 ft | 447 kts | 259° |
| 2026-05-05 18:19 | 47.94894 | 12.31183 | 29861 ft | 447 kts | 259° |
| 2026-05-05 18:19 | 47.94024 | 12.22005 | 29855 ft | 447 kts | 259° |
| 2026-05-05 18:20 | 47.93145 | 12.12830 | 29854 ft | 447 kts | 258° |
| 2026-05-05 18:20 | 47.92261 | 12.03660 | 29857 ft | 447 kts | 258° |
| 2026-05-05 18:21 | 47.91370 | 11.94487 | 29850 ft | 447 kts | 258° |
| 2026-05-05 18:21 | 47.90482 | 11.85423 | 29850 ft | 429 kts | 258° |
| 2026-05-05 18:22 | 47.89611 | 11.76688 | 29845 ft | 426 kts | 258° |
| 2026-05-05 18:22 | 47.88738 | 11.67959 | 29848 ft | 426 kts | 258° |
| 2026-05-05 18:23 | 47.87863 | 11.59236 | 29853 ft | 426 kts | 258° |
| 2026-05-05 18:23 | 47.86975 | 11.50509 | 29843 ft | 426 kts | 258° |
| 2026-05-05 18:24 | 47.86088 | 11.41799 | 29869 ft | 423 kts | 258° |
| 2026-05-05 18:24 | 47.85199 | 11.33177 | 29868 ft | 422 kts | 258° |
| 2026-05-05 18:25 | 47.84300 | 11.24533 | 29867 ft | 423 kts | 257° |
| 2026-05-05 18:25 | 47.83396 | 11.15876 | 29861 ft | 423 kts | 257° |
| 2026-05-05 18:26 | 47.82492 | 11.07226 | 29828 ft | 423 kts | 257° |
| 2026-05-05 18:26 | 47.81570 | 10.98567 | 29846 ft | 425 kts | 257° |
| 2026-05-05 18:27 | 47.80630 | 10.89875 | 29843 ft | 426 kts | 257° |
| 2026-05-05 18:27 | 47.79691 | 10.81194 | 29562 ft | 425 kts | 257° |
| 2026-05-05 18:27 | 47.79223 | 10.76903 | 29268 ft | 426 kts | 257° |
| 2026-05-05 18:28 | 47.78262 | 10.68124 | 28684 ft | 428 kts | 257° |
| 2026-05-05 18:28 | 47.77782 | 10.63820 | 28411 ft | 429 kts | 257° |
| 2026-05-05 18:28 | 47.77293 | 10.59382 | 28136 ft | 430 kts | 257° |
| 2026-05-05 18:29 | 47.76804 | 10.54999 | 27901 ft | 431 kts | 257° |
| 2026-05-05 18:29 | 47.76314 | 10.50590 | 27626 ft | 433 kts | 257° |
| 2026-05-05 18:29 | 47.75830 | 10.46234 | 27379 ft | 433 kts | 257° |
| 2026-05-05 18:29 | 47.75334 | 10.41811 | 27112 ft | 434 kts | 257° |
| 2026-05-05 18:30 | 47.74850 | 10.37468 | 26849 ft | 419 kts | 257° |
| 2026-05-05 18:30 | 47.74530 | 10.33228 | 26562 ft | 407 kts | 264° |
| 2026-05-05 18:30 | 47.74426 | 10.29096 | 26312 ft | 394 kts | 264° |
| 2026-05-05 18:30 | 47.74344 | 10.25069 | 26051 ft | 388 kts | 264° |
| 2026-05-05 18:31 | 47.74258 | 10.21069 | 25803 ft | 386 kts | 264° |
| 2026-05-05 18:31 | 47.74161 | 10.17031 | 25549 ft | 385 kts | 264° |
| 2026-05-05 18:31 | 47.74066 | 10.13114 | 25319 ft | 385 kts | 265° |
| 2026-05-05 18:31 | 47.73974 | 10.09129 | 25077 ft | 386 kts | 265° |
| 2026-05-05 18:32 | 47.73882 | 10.05144 | 24838 ft | 385 kts | 265° |
| 2026-05-05 18:32 | 47.73790 | 10.01224 | 24599 ft | 374 kts | 265° |
| 2026-05-05 18:32 | 47.73701 | 9.97433 | 24396 ft | 361 kts | 264° |
| 2026-05-05 18:32 | 47.73608 | 9.93750 | 24054 ft | 354 kts | 264° |
| 2026-05-05 18:33 | 47.73514 | 9.90123 | 23650 ft | 348 kts | 264° |
| 2026-05-05 18:33 | 47.73420 | 9.86550 | 23200 ft | 344 kts | 264° |
| 2026-05-05 18:33 | 47.73326 | 9.83029 | 22701 ft | 339 kts | 264° |
| 2026-05-05 18:33 | 47.73234 | 9.79549 | 22217 ft | 335 kts | 265° |
| 2026-05-05 18:34 | 47.73145 | 9.76110 | 21737 ft | 331 kts | 265° |
| 2026-05-05 18:34 | 47.73054 | 9.72719 | 21269 ft | 327 kts | 265° |
| 2026-05-05 18:34 | 47.72964 | 9.69362 | 20819 ft | 326 kts | 265° |
| 2026-05-05 18:34 | 47.72873 | 9.66007 | 20363 ft | 324 kts | 265° |
| 2026-05-05 18:35 | 47.72781 | 9.62679 | 19916 ft | 321 kts | 265° |
| 2026-05-05 18:35 | 47.72689 | 9.59379 | 19473 ft | 319 kts | 265° |
| 2026-05-05 18:35 | 47.72596 | 9.56103 | 19036 ft | 316 kts | 265° |
| 2026-05-05 18:35 | 47.72502 | 9.52852 | 18605 ft | 314 kts | 265° |
| 2026-05-05 18:36 | 47.72406 | 9.49625 | 18180 ft | 311 kts | 265° |
| 2026-05-05 18:36 | 47.72313 | 9.46427 | 17698 ft | 309 kts | 265° |
| 2026-05-05 18:36 | 47.71999 | 9.43303 | 17212 ft | 304 kts | 251° |
| 2026-05-05 18:36 | 47.71077 | 9.40512 | 16757 ft | 301 kts | 234° |
| 2026-05-05 18:37 | 47.69784 | 9.38087 | 16306 ft | 299 kts | 230° |
| 2026-05-05 18:37 | 47.68444 | 9.35728 | 15843 ft | 297 kts | 230° |
| 2026-05-05 18:37 | 47.67121 | 9.33379 | 15411 ft | 296 kts | 231° |
| 2026-05-05 18:37 | 47.65816 | 9.31039 | 14961 ft | 293 kts | 231° |
| 2026-05-05 18:38 | 47.64536 | 9.28728 | 14514 ft | 288 kts | 231° |
| 2026-05-05 18:38 | 47.63276 | 9.26451 | 14090 ft | 284 kts | 231° |
| 2026-05-05 18:38 | 47.62031 | 9.24202 | 13703 ft | 281 kts | 231° |
| 2026-05-05 18:38 | 47.60799 | 9.21976 | 13258 ft | 278 kts | 231° |
| 2026-05-05 18:39 | 47.59642 | 9.19713 | 12811 ft | 274 kts | 239° |
| 2026-05-05 18:39 | 47.58953 | 9.17128 | 12424 ft | 267 kts | 256° |
| 2026-05-05 18:39 | 47.58733 | 9.14458 | 12090 ft | 258 kts | 273° |
| 2026-05-05 18:39 | 47.59081 | 9.11899 | 11778 ft | 249 kts | 282° |
| 2026-05-05 18:40 | 47.59563 | 9.09456 | 11468 ft | 246 kts | 283° |
| 2026-05-05 18:40 | 47.60063 | 9.07036 | 11140 ft | 245 kts | 283° |
| 2026-05-05 18:40 | 47.60564 | 9.04628 | 10821 ft | 244 kts | 283° |
| 2026-05-05 18:40 | 47.61065 | 9.02231 | 10481 ft | 243 kts | 283° |
| 2026-05-05 18:41 | 47.61564 | 8.99847 | 10136 ft | 242 kts | 283° |
| 2026-05-05 18:41 | 47.62063 | 8.97468 | 9791 ft | 241 kts | 283° |
| 2026-05-05 18:41 | 47.62559 | 8.95100 | 9408 ft | 240 kts | 283° |
| 2026-05-05 18:41 | 47.63052 | 8.92747 | 9033 ft | 238 kts | 283° |
| 2026-05-05 18:42 | 47.63544 | 8.90403 | 8874 ft | 238 kts | 283° |
| 2026-05-05 18:42 | 47.64037 | 8.88064 | 8859 ft | 238 kts | 283° |
| 2026-05-05 18:42 | 47.64526 | 8.85719 | 8878 ft | 238 kts | 283° |
| 2026-05-05 18:42 | 47.65012 | 8.83371 | 8885 ft | 238 kts | 283° |
| 2026-05-05 18:43 | 47.65513 | 8.81043 | 8884 ft | 236 kts | 283° |
| 2026-05-05 18:43 | 47.66024 | 8.78736 | 8888 ft | 235 kts | 283° |
| 2026-05-05 18:43 | 47.66536 | 8.76438 | 8887 ft | 235 kts | 283° |
| 2026-05-05 18:43 | 47.67050 | 8.74140 | 8888 ft | 235 kts | 283° |
| 2026-05-05 18:44 | 47.67564 | 8.71843 | 8889 ft | 235 kts | 283° |
| 2026-05-05 18:44 | 47.68079 | 8.69541 | 8882 ft | 235 kts | 283° |
| 2026-05-05 18:44 | 47.68592 | 8.67239 | 8887 ft | 235 kts | 283° |
| 2026-05-05 18:44 | 47.69108 | 8.64938 | 8888 ft | 235 kts | 283° |
| 2026-05-05 18:45 | 47.69621 | 8.62640 | 8889 ft | 235 kts | 283° |
| 2026-05-05 18:45 | 47.70134 | 8.60339 | 8888 ft | 236 kts | 283° |
| 2026-05-05 18:45 | 47.70650 | 8.58032 | 8647 ft | 234 kts | 283° |
| 2026-05-05 18:45 | 47.71161 | 8.55750 | 8312 ft | 233 kts | 283° |
| 2026-05-05 18:46 | 47.71668 | 8.53476 | 7981 ft | 231 kts | 283° |
| 2026-05-05 18:46 | 47.72167 | 8.51218 | 7651 ft | 229 kts | 283° |
| 2026-05-05 18:46 | 47.72660 | 8.48975 | 7304 ft | 228 kts | 283° |
| 2026-05-05 18:46 | 47.73147 | 8.46744 | 6955 ft | 227 kts | 283° |
| 2026-05-05 18:47 | 47.73625 | 8.44518 | 6650 ft | 226 kts | 283° |
| 2026-05-05 18:47 | 47.73833 | 8.42250 | 6402 ft | 220 kts | 266° |
| 2026-05-05 18:47 | 47.73774 | 8.39998 | 6163 ft | 218 kts | 263° |
| 2026-05-05 18:47 | 47.73546 | 8.37803 | 6014 ft | 214 kts | 248° |
| 2026-05-05 18:48 | 47.72963 | 8.35784 | 5969 ft | 209 kts | 243° |
| 2026-05-05 18:48 | 47.72357 | 8.33880 | 5763 ft | 197 kts | 243° |
| 2026-05-05 18:48 | 47.71777 | 8.32073 | 5644 ft | 194 kts | 243° |
| 2026-05-05 18:48 | 47.71205 | 8.30303 | 5409 ft | 185 kts | 243° |
| 2026-05-05 18:49 | 47.70471 | 8.28802 | 5141 ft | 180 kts | 219° |
| 2026-05-05 18:49 | 47.69282 | 8.28305 | 5019 ft | 186 kts | 182° |
| 2026-05-05 18:49 | 47.67999 | 8.28648 | 5025 ft | 188 kts | 173° |
| 2026-05-05 18:49 | 47.66723 | 8.29082 | 5032 ft | 190 kts | 169° |
| 2026-05-05 18:50 | 47.65554 | 8.30017 | 5042 ft | 197 kts | 150° |
| 2026-05-05 18:50 | 47.64484 | 8.31354 | 5048 ft | 200 kts | 142° |
| 2026-05-05 18:50 | 47.63483 | 8.32742 | 5054 ft | 200 kts | 143° |
| 2026-05-05 18:50 | 47.62451 | 8.34158 | 5044 ft | 200 kts | 143° |
| 2026-05-05 18:51 | 47.61437 | 8.35548 | 4930 ft | 194 kts | 143° |
| 2026-05-05 18:51 | 47.60492 | 8.36843 | 4737 ft | 180 kts | 142° |
| 2026-05-05 18:51 | 47.59574 | 8.38097 | 4502 ft | 179 kts | 142° |
| 2026-05-05 18:51 | 47.58661 | 8.39345 | 4265 ft | 178 kts | 142° |
| 2026-05-05 18:52 | 47.58060 | 8.40168 | 4101 ft | 178 kts | 142° |
| 2026-05-05 18:52 | 47.57161 | 8.41398 | 3877 ft | 170 kts | 142° |
| 2026-05-05 18:52 | 47.56349 | 8.42509 | 3638 ft | 154 kts | 143° |
| 2026-05-05 18:52 | 47.55565 | 8.43578 | 3434 ft | 153 kts | 142° |
| 2026-05-05 18:53 | 47.54784 | 8.44646 | 3215 ft | 153 kts | 141° |
| 2026-05-05 18:53 | 47.54005 | 8.45710 | 3010 ft | 152 kts | 141° |
| 2026-05-05 18:53 | 47.53238 | 8.46756 | 2826 ft | 148 kts | 141° |
| 2026-05-05 18:53 | 47.52481 | 8.47789 | 2642 ft | 148 kts | 141° |
| 2026-05-05 18:54 | 47.51728 | 8.48817 | 2438 ft | 146 kts | 140° |
| 2026-05-05 18:54 | 47.50982 | 8.49834 | 2215 ft | 146 kts | 139° |
| 2026-05-05 18:54 | 47.50239 | 8.50841 | 1997 ft | 144 kts | 139° |
| 2026-05-05 18:54 | 47.49507 | 8.51852 | 1805 ft | 144 kts | 136° |
| 2026-05-05 18:55 | 47.48781 | 8.52856 | 1601 ft | 142 kts | 139° |
| 2026-05-05 18:55 | 47.48054 | 8.53827 | 1428 ft | 139 kts | 139° |
| 2026-05-05 18:55 | 47.47414 | 8.54687 | 1404 ft | 109 kts | 137° |
| 2026-05-05 18:55 | 47.46926 | 8.55358 | 1396 ft | 78 kts | 139° |
| 2026-05-05 18:56 | 47.46668 | 8.55647 | 1403 ft | 39 kts | 170° |
| 2026-05-05 18:56 | 47.46479 | 8.55715 | 1407 ft | 11 kts | 165° |
| 2026-05-05 18:56 | 47.46410 | 8.55742 | 1410 ft | 4 kts | 160° |
| 2026-05-05 18:56 | 47.46374 | 8.55772 | 1412 ft | 7 kts | 141° |
| 2026-05-05 18:57 | 47.46342 | 8.55815 | 1405 ft | 0 kts | 136° |
| 2026-05-05 18:58 | 47.46340 | 8.55818 | 1405 ft | 4 kts | 136° |
| 2026-05-05 18:59 | 47.46297 | 8.55878 | 1411 ft | 10 kts | 136° |
| 2026-05-05 18:59 | 47.46235 | 8.55963 | 1409 ft | 14 kts | 137° |
| 2026-05-05 18:59 | 47.46123 | 8.55999 | 1412 ft | 19 kts | 188° |
| 2026-05-05 18:59 | 47.45984 | 8.55973 | 1411 ft | 21 kts | 187° |
| 2026-05-05 19:00 | 47.45862 | 8.55919 | 1418 ft | 11 kts | 202° |
| 2026-05-05 19:00 | 47.45830 | 8.55899 | 1415 ft | 0 kts | 202° |
| 2026-05-05 19:02 | 47.45811 | 8.55889 | 1415 ft | 9 kts | 195° |
| 2026-05-05 19:03 | 47.45717 | 8.55867 | 1414 ft | 17 kts | 186° |
| 2026-05-05 19:03 | 47.45663 | 8.55859 | 1414 ft | 4 kts | 185° |
| 2026-05-05 19:03 | 47.45654 | 8.55858 | 1414 ft | 0 kts | 185° |
| 2026-05-05 19:04 | 47.45646 | 8.55844 | 1419 ft | 5 kts | 249° |
| 2026-05-05 19:04 | 47.45649 | 8.55693 | 1414 ft | 17 kts | 277° |
| 2026-05-05 19:04 | 47.45664 | 8.55509 | 1409 ft | 19 kts | 276° |
| 2026-05-05 19:05 | 47.45658 | 8.55342 | 1411 ft | 15 kts | 217° |
| 2026-05-05 19:05 | 47.45552 | 8.55389 | 1410 ft | 18 kts | 153° |
| 2026-05-05 19:05 | 47.45434 | 8.55470 | 1414 ft | 19 kts | 155° |
| 2026-05-05 19:05 | 47.45311 | 8.55557 | 1414 ft | 18 kts | 154° |
| 2026-05-05 19:06 | 47.45268 | 8.55678 | 1412 ft | 15 kts | 96° |
| 2026-05-05 19:06 | 47.45258 | 8.55832 | 1418 ft | 16 kts | 95° |
| 2026-05-05 19:06 | 47.45270 | 8.55925 | 1413 ft | 8 kts | 30° |
| 2026-05-05 19:06 | 47.45319 | 8.55941 | 1414 ft | 4 kts | 6° |
| 2026-05-05 19:07 | 47.45325 | 8.55942 | 1412 ft | 0 kts | 6° |